sensor_id;sensor_type;location;lat;lon;timestamp;P1;durP1;ratioP1;P2;durP2;ratioP2
77991;SDS011;67180;43.534;-5.652;2023-02-14T00:01:11;15.00;;;7.57;;
77991;SDS011;67180;43.534;-5.652;2023-02-14T00:03:38;15.35;;;7.15;;
77991;SDS011;67180;43.534;-5.652;2023-02-14T00:06:08;20.42;;;7.80;;
77991;SDS011;67180;43.534;-5.652;2023-02-14T00:08:35;22.02;;;8.77;;
77991;SDS011;67180;43.534;-5.652;2023-02-14T00:11:02;13.07;;;6.80;;
77991;SDS011;67180;43.534;-5.652;2023-02-14T00:13:28;14.13;;;7.38;;
77991;SDS011;67180;43.534;-5.652;2023-02-14T00:15:54;16.02;;;7.70;;
77991;SDS011;67180;43.534;-5.652;2023-02-14T00:18:21;16.80;;;7.20;;
77991;SDS011;67180;43.534;-5.652;2023-02-14T00:21:07;17.40;;;8.07;;
77991;SDS011;67180;43.534;-5.652;2023-02-14T00:23:33;16.30;;;7.35;;
77991;SDS011;67180;43.534;-5.652;2023-02-14T00:25:59;19.15;;;7.75;;
77991;SDS011;67180;43.534;-5.652;2023-02-14T00:28:25;19.98;;;7.38;;
77991;SDS011;67180;43.534;-5.652;2023-02-14T00:30:51;14.30;;;6.53;;
77991;SDS011;67180;43.534;-5.652;2023-02-14T00:33:18;13.27;;;6.28;;
77991;SDS011;67180;43.534;-5.652;2023-02-14T00:35:44;15.82;;;7.15;;
77991;SDS011;67180;43.534;-5.652;2023-02-14T00:38:10;17.27;;;6.60;;
77991;SDS011;67180;43.534;-5.652;2023-02-14T00:40:36;13.20;;;6.00;;
77991;SDS011;67180;43.534;-5.652;2023-02-14T00:43:02;13.13;;;5.60;;
77991;SDS011;67180;43.534;-5.652;2023-02-14T00:45:28;10.43;;;5.00;;
77991;SDS011;67180;43.534;-5.652;2023-02-14T00:47:54;13.88;;;5.40;;
77991;SDS011;67180;43.534;-5.652;2023-02-14T00:50:21;11.60;;;4.68;;
77991;SDS011;67180;43.534;-5.652;2023-02-14T00:52:47;14.30;;;5.20;;
77991;SDS011;67180;43.534;-5.652;2023-02-14T00:55:13;11.95;;;4.85;;
77991;SDS011;67180;43.534;-5.652;2023-02-14T00:57:39;12.32;;;4.70;;
77991;SDS011;67180;43.534;-5.652;2023-02-14T01:00:06;18.63;;;4.95;;
77991;SDS011;67180;43.534;-5.652;2023-02-14T01:02:32;15.07;;;5.30;;
77991;SDS011;67180;43.534;-5.652;2023-02-14T01:04:58;14.80;;;5.90;;
77991;SDS011;67180;43.534;-5.652;2023-02-14T01:07:24;12.45;;;5.63;;
77991;SDS011;67180;43.534;-5.652;2023-02-14T01:09:50;13.70;;;6.05;;
77991;SDS011;67180;43.534;-5.652;2023-02-14T01:12:16;14.35;;;6.85;;
77991;SDS011;67180;43.534;-5.652;2023-02-14T01:14:43;23.20;;;7.35;;
77991;SDS011;67180;43.534;-5.652;2023-02-14T01:17:09;16.02;;;6.00;;
77991;SDS011;67180;43.534;-5.652;2023-02-14T01:19:35;14.43;;;6.22;;
77991;SDS011;67180;43.534;-5.652;2023-02-14T01:22:02;12.43;;;5.95;;
77991;SDS011;67180;43.534;-5.652;2023-02-14T01:24:28;11.45;;;5.53;;
77991;SDS011;67180;43.534;-5.652;2023-02-14T01:26:54;14.10;;;5.57;;
77991;SDS011;67180;43.534;-5.652;2023-02-14T01:29:20;9.45;;;5.13;;
77991;SDS011;67180;43.534;-5.652;2023-02-14T01:31:47;12.93;;;5.50;;
77991;SDS011;67180;43.534;-5.652;2023-02-14T01:34:13;13.30;;;5.05;;
77991;SDS011;67180;43.534;-5.652;2023-02-14T01:36:39;12.65;;;5.32;;
77991;SDS011;67180;43.534;-5.652;2023-02-14T01:39:07;14.70;;;4.88;;
77991;SDS011;67180;43.534;-5.652;2023-02-14T01:41:34;10.15;;;5.35;;
77991;SDS011;67180;43.534;-5.652;2023-02-14T01:44:03;13.80;;;5.32;;
77991;SDS011;67180;43.534;-5.652;2023-02-14T01:46:32;11.10;;;5.30;;
77991;SDS011;67180;43.534;-5.652;2023-02-14T01:49:02;12.07;;;4.82;;
77991;SDS011;67180;43.534;-5.652;2023-02-14T01:51:29;10.75;;;4.88;;
77991;SDS011;67180;43.534;-5.652;2023-02-14T01:53:57;18.35;;;5.63;;
77991;SDS011;67180;43.534;-5.652;2023-02-14T01:56:26;9.32;;;5.18;;
77991;SDS011;67180;43.534;-5.652;2023-02-14T01:58:54;19.88;;;5.20;;
77991;SDS011;67180;43.534;-5.652;2023-02-14T02:01:22;8.18;;;4.15;;
77991;SDS011;67180;43.534;-5.652;2023-02-14T02:03:50;13.70;;;5.10;;
77991;SDS011;67180;43.534;-5.652;2023-02-14T02:06:26;20.30;;;5.15;;
77991;SDS011;67180;43.534;-5.652;2023-02-14T02:08:58;13.98;;;5.47;;
77991;SDS011;67180;43.534;-5.652;2023-02-14T02:11:25;12.48;;;5.22;;
77991;SDS011;67180;43.534;-5.652;2023-02-14T02:13:52;14.98;;;5.65;;
77991;SDS011;67180;43.534;-5.652;2023-02-14T02:16:21;14.75;;;5.22;;
77991;SDS011;67180;43.534;-5.652;2023-02-14T02:18:55;11.60;;;4.90;;
77991;SDS011;67180;43.534;-5.652;2023-02-14T02:24:30;13.23;;;4.70;;
77991;SDS011;67180;43.534;-5.652;2023-02-14T02:27:13;11.30;;;4.25;;
77991;SDS011;67180;43.534;-5.652;2023-02-14T02:32:26;12.88;;;4.40;;
77991;SDS011;67180;43.534;-5.652;2023-02-14T02:35:03;16.77;;;4.43;;
77991;SDS011;67180;43.534;-5.652;2023-02-14T02:37:36;11.57;;;3.38;;
77991;SDS011;67180;43.534;-5.652;2023-02-14T02:40:08;17.45;;;4.03;;
77991;SDS011;67180;43.534;-5.652;2023-02-14T02:42:43;11.65;;;3.70;;
77991;SDS011;67180;43.534;-5.652;2023-02-14T02:45:17;8.85;;;3.70;;
77991;SDS011;67180;43.534;-5.652;2023-02-14T02:50:17;8.73;;;3.35;;
77991;SDS011;67180;43.534;-5.652;2023-02-14T02:53:18;10.60;;;3.10;;
77991;SDS011;67180;43.534;-5.652;2023-02-14T02:56:07;9.65;;;3.38;;
77991;SDS011;67180;43.534;-5.652;2023-02-14T02:58:51;9.23;;;3.20;;
77991;SDS011;67180;43.534;-5.652;2023-02-14T03:01:23;13.18;;;3.70;;
77991;SDS011;67180;43.534;-5.652;2023-02-14T03:03:53;13.32;;;4.82;;
77991;SDS011;67180;43.534;-5.652;2023-02-14T03:06:33;14.57;;;4.82;;
77991;SDS011;67180;43.534;-5.652;2023-02-14T03:11:35;15.80;;;5.28;;
77991;SDS011;67180;43.534;-5.652;2023-02-14T03:14:18;18.38;;;5.38;;
77991;SDS011;67180;43.534;-5.652;2023-02-14T03:16:49;14.07;;;5.82;;
77991;SDS011;67180;43.534;-5.652;2023-02-14T03:19:25;19.02;;;6.63;;
77991;SDS011;67180;43.534;-5.652;2023-02-14T03:22:07;16.48;;;6.13;;
77991;SDS011;67180;43.534;-5.652;2023-02-14T03:24:41;20.42;;;6.85;;
77991;SDS011;67180;43.534;-5.652;2023-02-14T03:27:20;25.58;;;8.15;;
77991;SDS011;67180;43.534;-5.652;2023-02-14T03:29:52;25.60;;;8.02;;
77991;SDS011;67180;43.534;-5.652;2023-02-14T03:32:30;23.50;;;8.80;;
77991;SDS011;67180;43.534;-5.652;2023-02-14T03:34:59;26.95;;;8.73;;
77991;SDS011;67180;43.534;-5.652;2023-02-14T03:37:28;27.33;;;10.10;;
77991;SDS011;67180;43.534;-5.652;2023-02-14T03:42:37;24.10;;;8.82;;
77991;SDS011;67180;43.534;-5.652;2023-02-14T03:45:06;28.33;;;9.80;;
77991;SDS011;67180;43.534;-5.652;2023-02-14T03:47:34;21.08;;;8.43;;
77991;SDS011;67180;43.534;-5.652;2023-02-14T03:50:06;19.83;;;7.85;;
77991;SDS011;67180;43.534;-5.652;2023-02-14T03:52:34;17.83;;;6.60;;
77991;SDS011;67180;43.534;-5.652;2023-02-14T03:55:02;15.43;;;6.43;;
77991;SDS011;67180;43.534;-5.652;2023-02-14T03:57:46;15.63;;;5.90;;
77991;SDS011;67180;43.534;-5.652;2023-02-14T04:00:15;18.02;;;5.63;;
77991;SDS011;67180;43.534;-5.652;2023-02-14T04:02:45;13.55;;;5.03;;
77991;SDS011;67180;43.534;-5.652;2023-02-14T04:05:16;17.30;;;4.90;;
77991;SDS011;67180;43.534;-5.652;2023-02-14T04:07:44;17.33;;;5.07;;
77991;SDS011;67180;43.534;-5.652;2023-02-14T04:10:10;14.95;;;5.28;;
77991;SDS011;67180;43.534;-5.652;2023-02-14T04:12:37;12.75;;;4.68;;
77991;SDS011;67180;43.534;-5.652;2023-02-14T04:15:03;15.63;;;5.50;;
77991;SDS011;67180;43.534;-5.652;2023-02-14T04:17:29;17.75;;;6.38;;
77991;SDS011;67180;43.534;-5.652;2023-02-14T04:20:10;24.38;;;10.25;;
77991;SDS011;67180;43.534;-5.652;2023-02-14T04:22:37;35.08;;;17.50;;
77991;SDS011;67180;43.534;-5.652;2023-02-14T04:25:03;37.67;;;20.83;;
77991;SDS011;67180;43.534;-5.652;2023-02-14T04:27:29;38.00;;;19.67;;
77991;SDS011;67180;43.534;-5.652;2023-02-14T04:29:55;30.17;;;16.48;;
77991;SDS011;67180;43.534;-5.652;2023-02-14T04:32:22;33.20;;;16.10;;
77991;SDS011;67180;43.534;-5.652;2023-02-14T04:34:48;19.10;;;10.10;;
77991;SDS011;67180;43.534;-5.652;2023-02-14T04:37:15;22.77;;;11.35;;
77991;SDS011;67180;43.534;-5.652;2023-02-14T04:39:41;24.80;;;9.85;;
77991;SDS011;67180;43.534;-5.652;2023-02-14T04:42:08;19.17;;;9.15;;
77991;SDS011;67180;43.534;-5.652;2023-02-14T04:44:34;18.73;;;9.30;;
77991;SDS011;67180;43.534;-5.652;2023-02-14T04:47:02;13.63;;;6.80;;
77991;SDS011;67180;43.534;-5.652;2023-02-14T04:49:29;14.43;;;6.47;;
77991;SDS011;67180;43.534;-5.652;2023-02-14T04:51:55;16.23;;;6.25;;
77991;SDS011;67180;43.534;-5.652;2023-02-14T04:54:21;11.48;;;5.43;;
77991;SDS011;67180;43.534;-5.652;2023-02-14T04:56:48;19.65;;;6.05;;
77991;SDS011;67180;43.534;-5.652;2023-02-14T04:59:14;10.95;;;5.38;;
77991;SDS011;67180;43.534;-5.652;2023-02-14T05:01:41;12.60;;;5.22;;
77991;SDS011;67180;43.534;-5.652;2023-02-14T05:04:07;14.40;;;4.35;;
77991;SDS011;67180;43.534;-5.652;2023-02-14T05:06:33;12.25;;;4.50;;
77991;SDS011;67180;43.534;-5.652;2023-02-14T05:08:59;14.75;;;4.57;;
77991;SDS011;67180;43.534;-5.652;2023-02-14T05:11:26;17.67;;;4.30;;
77991;SDS011;67180;43.534;-5.652;2023-02-14T05:13:52;13.57;;;4.70;;
77991;SDS011;67180;43.534;-5.652;2023-02-14T05:16:19;10.98;;;4.25;;
77991;SDS011;67180;43.534;-5.652;2023-02-14T05:18:45;13.43;;;5.10;;
77991;SDS011;67180;43.534;-5.652;2023-02-14T05:21:11;12.85;;;3.90;;
77991;SDS011;67180;43.534;-5.652;2023-02-14T05:23:37;14.85;;;5.05;;
77991;SDS011;67180;43.534;-5.652;2023-02-14T05:26:03;13.85;;;4.13;;
77991;SDS011;67180;43.534;-5.652;2023-02-14T05:28:30;15.43;;;4.85;;
77991;SDS011;67180;43.534;-5.652;2023-02-14T05:30:56;9.68;;;4.45;;
77991;SDS011;67180;43.534;-5.652;2023-02-14T05:33:22;13.95;;;4.47;;
77991;SDS011;67180;43.534;-5.652;2023-02-14T05:35:49;11.10;;;4.70;;
77991;SDS011;67180;43.534;-5.652;2023-02-14T05:38:15;10.80;;;4.35;;
77991;SDS011;67180;43.534;-5.652;2023-02-14T05:40:42;15.75;;;4.90;;
77991;SDS011;67180;43.534;-5.652;2023-02-14T05:43:08;12.25;;;4.82;;
77991;SDS011;67180;43.534;-5.652;2023-02-14T05:45:35;10.45;;;4.70;;
77991;SDS011;67180;43.534;-5.652;2023-02-14T05:48:01;12.88;;;4.00;;
77991;SDS011;67180;43.534;-5.652;2023-02-14T05:50:27;15.60;;;4.93;;
77991;SDS011;67180;43.534;-5.652;2023-02-14T05:52:54;14.25;;;4.07;;
77991;SDS011;67180;43.534;-5.652;2023-02-14T05:55:20;11.02;;;3.83;;
77991;SDS011;67180;43.534;-5.652;2023-02-14T05:57:47;11.35;;;4.07;;
77991;SDS011;67180;43.534;-5.652;2023-02-14T06:00:13;12.32;;;4.00;;
77991;SDS011;67180;43.534;-5.652;2023-02-14T06:02:39;11.77;;;5.10;;
77991;SDS011;67180;43.534;-5.652;2023-02-14T06:05:06;11.00;;;3.95;;
77991;SDS011;67180;43.534;-5.652;2023-02-14T06:07:32;9.07;;;3.92;;
77991;SDS011;67180;43.534;-5.652;2023-02-14T06:09:59;8.98;;;3.95;;
77991;SDS011;67180;43.534;-5.652;2023-02-14T06:12:26;15.10;;;4.10;;
77991;SDS011;67180;43.534;-5.652;2023-02-14T06:14:52;8.63;;;3.38;;
77991;SDS011;67180;43.534;-5.652;2023-02-14T06:17:18;6.32;;;3.70;;
77991;SDS011;67180;43.534;-5.652;2023-02-14T06:19:44;9.77;;;4.25;;
77991;SDS011;67180;43.534;-5.652;2023-02-14T06:22:10;12.63;;;4.50;;
77991;SDS011;67180;43.534;-5.652;2023-02-14T06:24:37;7.72;;;3.80;;
77991;SDS011;67180;43.534;-5.652;2023-02-14T06:27:03;8.45;;;3.75;;
77991;SDS011;67180;43.534;-5.652;2023-02-14T06:29:29;9.20;;;3.55;;
77991;SDS011;67180;43.534;-5.652;2023-02-14T06:31:55;10.35;;;3.75;;
77991;SDS011;67180;43.534;-5.652;2023-02-14T06:34:21;12.65;;;3.88;;
77991;SDS011;67180;43.534;-5.652;2023-02-14T06:36:47;9.27;;;3.10;;
77991;SDS011;67180;43.534;-5.652;2023-02-14T06:39:13;10.88;;;3.88;;
77991;SDS011;67180;43.534;-5.652;2023-02-14T06:41:40;9.40;;;3.47;;
77991;SDS011;67180;43.534;-5.652;2023-02-14T06:44:06;9.93;;;3.63;;
77991;SDS011;67180;43.534;-5.652;2023-02-14T06:46:34;13.73;;;4.35;;
77991;SDS011;67180;43.534;-5.652;2023-02-14T06:49:03;11.02;;;3.70;;
77991;SDS011;67180;43.534;-5.652;2023-02-14T06:51:29;10.13;;;3.90;;
77991;SDS011;67180;43.534;-5.652;2023-02-14T06:53:55;9.43;;;3.90;;
77991;SDS011;67180;43.534;-5.652;2023-02-14T06:56:21;10.48;;;4.25;;
77991;SDS011;67180;43.534;-5.652;2023-02-14T06:58:47;15.38;;;4.47;;
77991;SDS011;67180;43.534;-5.652;2023-02-14T07:01:13;9.95;;;3.80;;
77991;SDS011;67180;43.534;-5.652;2023-02-14T07:03:40;15.45;;;3.90;;
77991;SDS011;67180;43.534;-5.652;2023-02-14T07:06:07;7.03;;;3.40;;
77991;SDS011;67180;43.534;-5.652;2023-02-14T07:08:33;7.90;;;3.35;;
77991;SDS011;67180;43.534;-5.652;2023-02-14T07:10:59;9.82;;;3.33;;
77991;SDS011;67180;43.534;-5.652;2023-02-14T07:13:25;14.95;;;4.93;;
77991;SDS011;67180;43.534;-5.652;2023-02-14T07:15:51;12.02;;;3.88;;
77991;SDS011;67180;43.534;-5.652;2023-02-14T07:18:18;10.38;;;3.53;;
77991;SDS011;67180;43.534;-5.652;2023-02-14T07:20:44;11.57;;;3.50;;
77991;SDS011;67180;43.534;-5.652;2023-02-14T07:23:10;12.05;;;3.08;;
77991;SDS011;67180;43.534;-5.652;2023-02-14T07:25:36;8.50;;;2.92;;
77991;SDS011;67180;43.534;-5.652;2023-02-14T07:28:03;6.78;;;3.30;;
77991;SDS011;67180;43.534;-5.652;2023-02-14T07:30:29;11.82;;;3.28;;
77991;SDS011;67180;43.534;-5.652;2023-02-14T07:32:55;8.55;;;3.30;;
77991;SDS011;67180;43.534;-5.652;2023-02-14T07:35:21;17.00;;;3.47;;
77991;SDS011;67180;43.534;-5.652;2023-02-14T07:37:49;6.50;;;2.95;;
77991;SDS011;67180;43.534;-5.652;2023-02-14T07:40:15;12.70;;;3.20;;
77991;SDS011;67180;43.534;-5.652;2023-02-14T07:42:42;12.40;;;3.75;;
77991;SDS011;67180;43.534;-5.652;2023-02-14T07:45:08;10.50;;;3.70;;
77991;SDS011;67180;43.534;-5.652;2023-02-14T07:47:34;12.20;;;3.78;;
77991;SDS011;67180;43.534;-5.652;2023-02-14T07:58:32;22.65;;;4.47;;
77991;SDS011;67180;43.534;-5.652;2023-02-14T08:00:58;12.95;;;4.72;;
77991;SDS011;67180;43.534;-5.652;2023-02-14T08:03:25;19.52;;;4.82;;
77991;SDS011;67180;43.534;-5.652;2023-02-14T08:05:52;14.55;;;5.38;;
77991;SDS011;67180;43.534;-5.652;2023-02-14T08:08:22;19.35;;;5.57;;
77991;SDS011;67180;43.534;-5.652;2023-02-14T08:10:49;28.40;;;6.50;;
77991;SDS011;67180;43.534;-5.652;2023-02-14T08:13:15;23.30;;;5.60;;
77991;SDS011;67180;43.534;-5.652;2023-02-14T08:15:41;24.10;;;6.38;;
77991;SDS011;67180;43.534;-5.652;2023-02-14T08:18:19;32.45;;;7.28;;
77991;SDS011;67180;43.534;-5.652;2023-02-14T08:20:47;27.52;;;7.40;;
77991;SDS011;67180;43.534;-5.652;2023-02-14T08:23:14;12.57;;;5.65;;
77991;SDS011;67180;43.534;-5.652;2023-02-14T08:25:40;16.55;;;5.45;;
77991;SDS011;67180;43.534;-5.652;2023-02-14T08:28:06;14.50;;;5.63;;
77991;SDS011;67180;43.534;-5.652;2023-02-14T08:30:34;21.35;;;6.00;;
77991;SDS011;67180;43.534;-5.652;2023-02-14T08:33:02;12.95;;;4.82;;
77991;SDS011;67180;43.534;-5.652;2023-02-14T08:35:28;15.75;;;4.80;;
77991;SDS011;67180;43.534;-5.652;2023-02-14T08:37:54;19.33;;;5.63;;
77991;SDS011;67180;43.534;-5.652;2023-02-14T08:40:20;15.32;;;5.55;;
77991;SDS011;67180;43.534;-5.652;2023-02-14T08:42:46;15.23;;;4.85;;
77991;SDS011;67180;43.534;-5.652;2023-02-14T08:45:13;11.45;;;4.22;;
77991;SDS011;67180;43.534;-5.652;2023-02-14T08:47:41;12.85;;;4.22;;
77991;SDS011;67180;43.534;-5.652;2023-02-14T08:50:09;21.90;;;5.30;;
77991;SDS011;67180;43.534;-5.652;2023-02-14T08:52:35;12.48;;;4.93;;
77991;SDS011;67180;43.534;-5.652;2023-02-14T08:55:03;21.70;;;5.10;;
77991;SDS011;67180;43.534;-5.652;2023-02-14T08:57:29;19.08;;;4.63;;
77991;SDS011;67180;43.534;-5.652;2023-02-14T08:59:56;20.08;;;5.03;;
77991;SDS011;67180;43.534;-5.652;2023-02-14T09:02:22;18.00;;;5.15;;
77991;SDS011;67180;43.534;-5.652;2023-02-14T09:04:48;16.88;;;5.18;;
77991;SDS011;67180;43.534;-5.652;2023-02-14T09:07:14;15.73;;;5.75;;
77991;SDS011;67180;43.534;-5.652;2023-02-14T09:09:41;9.43;;;5.10;;
77991;SDS011;67180;43.534;-5.652;2023-02-14T09:12:07;17.05;;;5.82;;
77991;SDS011;67180;43.534;-5.652;2023-02-14T09:14:35;10.07;;;4.82;;
77991;SDS011;67180;43.534;-5.652;2023-02-14T09:17:02;15.70;;;5.00;;
77991;SDS011;67180;43.534;-5.652;2023-02-14T09:19:31;16.33;;;4.75;;
77991;SDS011;67180;43.534;-5.652;2023-02-14T09:21:57;11.13;;;4.25;;
77991;SDS011;67180;43.534;-5.652;2023-02-14T09:24:24;12.48;;;4.20;;
77991;SDS011;67180;43.534;-5.652;2023-02-14T09:26:52;7.53;;;3.78;;
77991;SDS011;67180;43.534;-5.652;2023-02-14T09:29:18;14.60;;;4.20;;
77991;SDS011;67180;43.534;-5.652;2023-02-14T09:31:44;14.40;;;4.50;;
77991;SDS011;67180;43.534;-5.652;2023-02-14T09:34:10;16.77;;;4.35;;
77991;SDS011;67180;43.534;-5.652;2023-02-14T09:36:48;18.50;;;4.25;;
77991;SDS011;67180;43.534;-5.652;2023-02-14T09:39:28;16.33;;;4.85;;
77991;SDS011;67180;43.534;-5.652;2023-02-14T09:44:41;14.38;;;4.50;;
77991;SDS011;67180;43.534;-5.652;2023-02-14T09:47:17;18.55;;;4.65;;
77991;SDS011;67180;43.534;-5.652;2023-02-14T09:49:45;26.17;;;4.80;;
77991;SDS011;67180;43.534;-5.652;2023-02-14T09:52:12;20.95;;;4.40;;
77991;SDS011;67180;43.534;-5.652;2023-02-14T09:54:39;13.00;;;5.10;;
77991;SDS011;67180;43.534;-5.652;2023-02-14T09:57:10;18.33;;;4.90;;
77991;SDS011;67180;43.534;-5.652;2023-02-14T10:05:21;19.25;;;5.30;;
77991;SDS011;67180;43.534;-5.652;2023-02-14T10:08:04;16.25;;;4.70;;
77991;SDS011;67180;43.534;-5.652;2023-02-14T10:10:41;13.35;;;4.70;;
77991;SDS011;67180;43.534;-5.652;2023-02-14T10:15:46;15.15;;;4.03;;
77991;SDS011;67180;43.534;-5.652;2023-02-14T10:18:21;9.30;;;4.00;;
77991;SDS011;67180;43.534;-5.652;2023-02-14T10:21:05;9.13;;;3.40;;
77991;SDS011;67180;43.534;-5.652;2023-02-14T10:23:33;13.68;;;5.68;;
77991;SDS011;67180;43.534;-5.652;2023-02-14T10:26:04;13.77;;;3.92;;
77991;SDS011;67180;43.534;-5.652;2023-02-14T10:28:32;11.07;;;5.35;;
77991;SDS011;67180;43.534;-5.652;2023-02-14T10:31:04;15.18;;;3.80;;
77991;SDS011;67180;43.534;-5.652;2023-02-14T10:33:36;10.45;;;3.47;;
77991;SDS011;67180;43.534;-5.652;2023-02-14T10:36:04;7.13;;;3.08;;
77991;SDS011;67180;43.534;-5.652;2023-02-14T10:41:16;19.80;;;9.23;;
77991;SDS011;67180;43.534;-5.652;2023-02-14T10:44:04;12.57;;;5.72;;
77991;SDS011;67180;43.534;-5.652;2023-02-14T10:46:35;6.65;;;2.30;;
77991;SDS011;67180;43.534;-5.652;2023-02-14T10:49:10;10.52;;;3.40;;
77991;SDS011;67180;43.534;-5.652;2023-02-14T10:54:24;8.63;;;2.50;;
77991;SDS011;67180;43.534;-5.652;2023-02-14T10:56:53;9.05;;;2.20;;
77991;SDS011;67180;43.534;-5.652;2023-02-14T10:59:29;13.80;;;4.40;;
77991;SDS011;67180;43.534;-5.652;2023-02-14T11:01:58;15.38;;;4.90;;
77991;SDS011;67180;43.534;-5.652;2023-02-14T11:04:25;13.65;;;4.70;;
77991;SDS011;67180;43.534;-5.652;2023-02-14T11:06:52;15.52;;;4.88;;
77991;SDS011;67180;43.534;-5.652;2023-02-14T11:09:18;14.23;;;4.72;;
77991;SDS011;67180;43.534;-5.652;2023-02-14T11:11:49;17.40;;;5.43;;
77991;SDS011;67180;43.534;-5.652;2023-02-14T11:14:22;16.30;;;5.00;;
77991;SDS011;67180;43.534;-5.652;2023-02-14T11:16:55;12.93;;;4.47;;
77991;SDS011;67180;43.534;-5.652;2023-02-14T11:19:24;12.37;;;4.30;;
77991;SDS011;67180;43.534;-5.652;2023-02-14T11:21:51;16.85;;;4.13;;
77991;SDS011;67180;43.534;-5.652;2023-02-14T11:24:27;11.77;;;3.58;;
77991;SDS011;67180;43.534;-5.652;2023-02-14T11:26:57;11.77;;;3.10;;
77991;SDS011;67180;43.534;-5.652;2023-02-14T11:29:26;9.00;;;3.08;;
77991;SDS011;67180;43.534;-5.652;2023-02-14T11:31:52;9.80;;;3.85;;
77991;SDS011;67180;43.534;-5.652;2023-02-14T11:34:30;10.95;;;3.40;;
77991;SDS011;67180;43.534;-5.652;2023-02-14T11:36:57;11.45;;;3.80;;
77991;SDS011;67180;43.534;-5.652;2023-02-14T11:39:32;7.85;;;3.65;;
77991;SDS011;67180;43.534;-5.652;2023-02-14T11:42:00;11.15;;;3.05;;
77991;SDS011;67180;43.534;-5.652;2023-02-14T11:44:29;6.97;;;2.20;;
77991;SDS011;67180;43.534;-5.652;2023-02-14T11:46:57;6.97;;;2.22;;
77991;SDS011;67180;43.534;-5.652;2023-02-14T11:49:41;5.28;;;1.77;;
77991;SDS011;67180;43.534;-5.652;2023-02-14T11:52:19;5.13;;;1.85;;
77991;SDS011;67180;43.534;-5.652;2023-02-14T11:54:51;4.78;;;1.83;;
77991;SDS011;67180;43.534;-5.652;2023-02-14T11:57:21;7.13;;;2.13;;
77991;SDS011;67180;43.534;-5.652;2023-02-14T11:59:50;6.03;;;2.22;;
77991;SDS011;67180;43.534;-5.652;2023-02-14T12:02:28;6.18;;;2.28;;
77991;SDS011;67180;43.534;-5.652;2023-02-14T12:04:58;12.20;;;3.13;;
77991;SDS011;67180;43.534;-5.652;2023-02-14T12:07:26;9.50;;;3.42;;
77991;SDS011;67180;43.534;-5.652;2023-02-14T12:12:48;6.90;;;2.53;;
77991;SDS011;67180;43.534;-5.652;2023-02-14T12:18:04;13.60;;;4.78;;
77991;SDS011;67180;43.534;-5.652;2023-02-14T12:20:37;12.88;;;5.28;;
77991;SDS011;67180;43.534;-5.652;2023-02-14T12:23:06;15.30;;;5.30;;
77991;SDS011;67180;43.534;-5.652;2023-02-14T12:25:39;16.52;;;5.30;;
77991;SDS011;67180;43.534;-5.652;2023-02-14T12:28:11;12.68;;;4.80;;
77991;SDS011;67180;43.534;-5.652;2023-02-14T12:30:38;11.48;;;5.10;;
77991;SDS011;67180;43.534;-5.652;2023-02-14T12:33:14;9.75;;;4.00;;
77991;SDS011;67180;43.534;-5.652;2023-02-14T12:35:48;11.85;;;4.18;;
77991;SDS011;67180;43.534;-5.652;2023-02-14T12:38:35;8.35;;;3.40;;
77991;SDS011;67180;43.534;-5.652;2023-02-14T12:41:25;7.75;;;3.10;;
77991;SDS011;67180;43.534;-5.652;2023-02-14T12:43:53;12.55;;;3.63;;
77991;SDS011;67180;43.534;-5.652;2023-02-14T12:49:09;12.70;;;3.85;;
77991;SDS011;67180;43.534;-5.652;2023-02-14T12:51:43;9.07;;;4.15;;
77991;SDS011;67180;43.534;-5.652;2023-02-14T12:54:28;17.58;;;4.50;;
77991;SDS011;67180;43.534;-5.652;2023-02-14T12:57:04;14.70;;;3.90;;
77991;SDS011;67180;43.534;-5.652;2023-02-14T12:59:38;15.20;;;3.80;;
77991;SDS011;67180;43.534;-5.652;2023-02-14T13:02:15;15.30;;;3.92;;
77991;SDS011;67180;43.534;-5.652;2023-02-14T13:04:47;19.17;;;4.22;;
77991;SDS011;67180;43.534;-5.652;2023-02-14T13:07:23;10.15;;;3.60;;
77991;SDS011;67180;43.534;-5.652;2023-02-14T13:10:00;12.55;;;3.70;;
77991;SDS011;67180;43.534;-5.652;2023-02-14T13:12:31;10.52;;;3.80;;
77991;SDS011;67180;43.534;-5.652;2023-02-14T13:15:02;14.02;;;3.70;;
77991;SDS011;67180;43.534;-5.652;2023-02-14T13:18:07;10.65;;;3.92;;
77991;SDS011;67180;43.534;-5.652;2023-02-14T13:20:37;8.77;;;3.53;;
77991;SDS011;67180;43.534;-5.652;2023-02-14T13:23:04;10.32;;;3.40;;
77991;SDS011;67180;43.534;-5.652;2023-02-14T13:25:33;7.70;;;3.25;;
77991;SDS011;67180;43.534;-5.652;2023-02-14T13:28:03;10.30;;;3.10;;
77991;SDS011;67180;43.534;-5.652;2023-02-14T13:30:31;10.63;;;3.30;;
77991;SDS011;67180;43.534;-5.652;2023-02-14T13:33:00;10.40;;;3.38;;
77991;SDS011;67180;43.534;-5.652;2023-02-14T13:38:02;8.00;;;3.28;;
77991;SDS011;67180;43.534;-5.652;2023-02-14T13:40:30;7.88;;;3.13;;
77991;SDS011;67180;43.534;-5.652;2023-02-14T13:42:57;6.82;;;2.40;;
77991;SDS011;67180;43.534;-5.652;2023-02-14T13:48:13;6.65;;;2.03;;
77991;SDS011;67180;43.534;-5.652;2023-02-14T13:58:55;6.75;;;2.60;;
77991;SDS011;67180;43.534;-5.652;2023-02-14T14:01:34;7.35;;;2.33;;
77991;SDS011;67180;43.534;-5.652;2023-02-14T14:04:02;5.75;;;2.60;;
77991;SDS011;67180;43.534;-5.652;2023-02-14T14:06:31;5.57;;;2.97;;
77991;SDS011;67180;43.534;-5.652;2023-02-14T14:09:27;5.97;;;2.05;;
77991;SDS011;67180;43.534;-5.652;2023-02-14T14:12:01;4.80;;;2.25;;
77991;SDS011;67180;43.534;-5.652;2023-02-14T14:14:29;4.82;;;1.85;;
77991;SDS011;67180;43.534;-5.652;2023-02-14T14:17:00;6.07;;;2.08;;
77991;SDS011;67180;43.534;-5.652;2023-02-14T14:19:35;5.95;;;2.13;;
77991;SDS011;67180;43.534;-5.652;2023-02-14T14:22:03;4.50;;;1.90;;
77991;SDS011;67180;43.534;-5.652;2023-02-14T14:24:30;6.57;;;1.95;;
77991;SDS011;67180;43.534;-5.652;2023-02-14T14:26:58;7.53;;;2.10;;
77991;SDS011;67180;43.534;-5.652;2023-02-14T14:32:08;8.55;;;2.05;;
77991;SDS011;67180;43.534;-5.652;2023-02-14T14:34:35;8.18;;;2.20;;
77991;SDS011;67180;43.534;-5.652;2023-02-14T14:37:03;8.98;;;2.15;;
77991;SDS011;67180;43.534;-5.652;2023-02-14T14:39:31;5.22;;;2.13;;
77991;SDS011;67180;43.534;-5.652;2023-02-14T14:42:05;6.03;;;2.20;;
77991;SDS011;67180;43.534;-5.652;2023-02-14T14:44:33;7.75;;;2.38;;
77991;SDS011;67180;43.534;-5.652;2023-02-14T14:47:00;6.85;;;2.42;;
77991;SDS011;67180;43.534;-5.652;2023-02-14T14:49:27;5.85;;;1.77;;
77991;SDS011;67180;43.534;-5.652;2023-02-14T14:51:53;6.00;;;2.20;;
77991;SDS011;67180;43.534;-5.652;2023-02-14T14:54:20;7.57;;;2.10;;
77991;SDS011;67180;43.534;-5.652;2023-02-14T14:56:53;5.55;;;2.10;;
77991;SDS011;67180;43.534;-5.652;2023-02-14T14:59:26;6.50;;;1.98;;
77991;SDS011;67180;43.534;-5.652;2023-02-14T15:01:54;4.93;;;2.10;;
77991;SDS011;67180;43.534;-5.652;2023-02-14T15:04:24;5.30;;;1.90;;
77991;SDS011;67180;43.534;-5.652;2023-02-14T15:06:53;7.88;;;2.10;;
77991;SDS011;67180;43.534;-5.652;2023-02-14T15:09:22;6.65;;;2.10;;
77991;SDS011;67180;43.534;-5.652;2023-02-14T15:11:48;6.75;;;1.88;;
77991;SDS011;67180;43.534;-5.652;2023-02-14T15:14:32;4.90;;;1.60;;
77991;SDS011;67180;43.534;-5.652;2023-02-14T15:16:59;9.02;;;2.30;;
77991;SDS011;67180;43.534;-5.652;2023-02-14T15:19:31;6.63;;;2.05;;
77991;SDS011;67180;43.534;-5.652;2023-02-14T15:22:04;6.07;;;1.77;;
77991;SDS011;67180;43.534;-5.652;2023-02-14T15:24:31;6.65;;;2.25;;
77991;SDS011;67180;43.534;-5.652;2023-02-14T15:26:59;5.82;;;2.13;;
77991;SDS011;67180;43.534;-5.652;2023-02-14T15:29:27;6.47;;;1.70;;
77991;SDS011;67180;43.534;-5.652;2023-02-14T15:31:54;5.97;;;1.67;;
77991;SDS011;67180;43.534;-5.652;2023-02-14T15:34:22;9.70;;;2.00;;
77991;SDS011;67180;43.534;-5.652;2023-02-14T15:36:49;5.75;;;2.05;;
77991;SDS011;67180;43.534;-5.652;2023-02-14T15:39:26;7.00;;;2.10;;
77991;SDS011;67180;43.534;-5.652;2023-02-14T15:41:53;9.98;;;2.40;;